createdAt,value
2023-06-06T00:03:21.766Z,1017.9
2023-06-06T00:08:21.793Z,1017.9
2023-06-06T00:13:21.777Z,1017.9
2023-06-06T00:18:21.800Z,1017.9
2023-06-06T00:23:21.789Z,1017.9
2023-06-06T00:28:21.796Z,1017.9
2023-06-06T00:33:21.799Z,1017.9
2023-06-06T00:38:21.945Z,1017.9
2023-06-06T00:43:21.883Z,1017.8
2023-06-06T00:48:21.858Z,1017.8
2023-06-06T00:53:21.827Z,1017.8
2023-06-06T00:58:21.833Z,1017.8
2023-06-06T01:03:21.842Z,1017.8
2023-06-06T01:08:21.832Z,1017.8
2023-06-06T01:13:21.832Z,1017.8
2023-06-06T01:18:21.840Z,1017.8
2023-06-06T01:23:21.842Z,1017.8
2023-06-06T01:28:21.836Z,1017.8
2023-06-06T01:33:21.925Z,1017.7
2023-06-06T01:38:21.855Z,1017.8
2023-06-06T01:43:21.856Z,1017.8
2023-06-06T01:48:21.849Z,1017.9
2023-06-06T01:53:21.973Z,1017.9
2023-06-06T01:58:21.865Z,1017.9
2023-06-06T02:03:21.903Z,1017.9
2023-06-06T02:08:22.006Z,1017.9
2023-06-06T02:13:22.050Z,1017.9
2023-06-06T02:18:21.997Z,1017.9
2023-06-06T02:23:21.916Z,1017.9
2023-06-06T02:28:21.897Z,1017.8
2023-06-06T02:33:21.967Z,1017.8
2023-06-06T02:38:21.902Z,1017.9
2023-06-06T02:43:21.977Z,1017.9
2023-06-06T02:48:21.908Z,1017.8
2023-06-06T02:53:21.916Z,1017.9
2023-06-06T02:58:21.934Z,1017.8
2023-06-06T03:03:21.998Z,1017.9
2023-06-06T03:08:21.950Z,1017.9
2023-06-06T03:13:22.136Z,1017.9
2023-06-06T03:18:21.919Z,1017.9
2023-06-06T03:23:21.930Z,1017.9
2023-06-06T03:28:22.101Z,1017.9
2023-06-06T03:33:22.095Z,1017.9
2023-06-06T03:38:21.960Z,1017.9
2023-06-06T03:43:22.022Z,1017.9
2023-06-06T03:48:21.967Z,1017.9
2023-06-06T03:53:21.981Z,1017.9
2023-06-06T03:58:22.130Z,1017.9
2023-06-06T04:03:21.995Z,1017.9
2023-06-06T04:08:21.979Z,1017.9
2023-06-06T04:13:21.984Z,1017.9
2023-06-06T04:18:22.003Z,1018.0
2023-06-06T04:23:21.998Z,1018.0
2023-06-06T04:28:21.997Z,1018.0
2023-06-06T04:33:22.018Z,1017.9
2023-06-06T04:38:22.187Z,1017.9
2023-06-06T04:43:22.013Z,1017.9
2023-06-06T04:48:22.030Z,1017.9
2023-06-06T04:53:22.020Z,1017.9
2023-06-06T04:58:22.039Z,1017.9
2023-06-06T05:03:22.033Z,1017.8
2023-06-06T05:08:22.056Z,1017.8
2023-06-06T05:13:22.035Z,1017.8
2023-06-06T05:18:22.092Z,1017.8
2023-06-06T05:23:22.071Z,1017.8
2023-06-06T05:28:22.064Z,1017.8
2023-06-06T05:33:22.138Z,1017.8
2023-06-06T05:38:22.061Z,1017.8
2023-06-06T05:43:22.180Z,1017.8
2023-06-06T05:48:22.119Z,1017.8
2023-06-06T05:53:22.114Z,1017.7
2023-06-06T05:58:22.075Z,1017.7
2023-06-06T06:03:22.081Z,1017.8
2023-06-06T06:08:22.168Z,1017.8
2023-06-06T06:13:22.088Z,1017.8
2023-06-06T06:18:22.098Z,1017.8
2023-06-06T06:23:22.093Z,1017.8
2023-06-06T06:28:22.093Z,1017.8
2023-06-06T06:33:22.135Z,1017.8
2023-06-06T06:38:22.122Z,1017.8
2023-06-06T06:43:22.102Z,1017.7
2023-06-06T06:48:22.096Z,1017.7
2023-06-06T06:53:22.106Z,1017.7
2023-06-06T06:58:22.123Z,1017.8
2023-06-06T07:03:22.109Z,1017.8
2023-06-06T07:08:22.165Z,1017.8
2023-06-06T07:13:22.118Z,1017.9
2023-06-06T07:18:22.124Z,1017.8
2023-06-06T07:23:22.299Z,1017.9
2023-06-06T07:28:22.121Z,1017.9
2023-06-06T07:33:22.134Z,1017.9
2023-06-06T07:38:22.142Z,1017.9
2023-06-06T07:43:22.133Z,1017.9
2023-06-06T07:48:22.170Z,1017.9
2023-06-06T07:53:22.155Z,1017.8
2023-06-06T07:58:22.202Z,1017.8
2023-06-06T08:03:22.211Z,1017.7
2023-06-06T08:08:22.332Z,1017.8
2023-06-06T08:13:22.160Z,1017.8
2023-06-06T08:18:22.199Z,1017.8
2023-06-06T08:23:22.217Z,1017.7
2023-06-06T08:28:22.299Z,1017.7
2023-06-06T08:33:22.301Z,1017.8
2023-06-06T08:38:22.180Z,1017.7
2023-06-06T08:43:24.587Z,1017.7
2023-06-06T08:48:22.251Z,1017.7
2023-06-06T08:53:22.946Z,1017.7
2023-06-06T08:58:22.187Z,1017.6
2023-06-06T09:03:22.189Z,1017.6
2023-06-06T09:08:22.312Z,1017.7
2023-06-06T09:13:22.195Z,1017.7
2023-06-06T09:18:22.241Z,1017.7
2023-06-06T09:23:22.198Z,1017.7
2023-06-06T09:28:22.196Z,1017.6
2023-06-06T09:33:22.224Z,1017.6
2023-06-06T09:38:22.226Z,1017.6
2023-06-06T09:43:22.199Z,1017.5
2023-06-06T09:48:22.195Z,1017.5
2023-06-06T09:53:22.209Z,1017.5
2023-06-06T09:58:22.354Z,1017.5
2023-06-06T10:03:22.214Z,1017.4
2023-06-06T10:08:22.204Z,1017.4
2023-06-06T10:13:22.206Z,1017.4
2023-06-06T10:18:22.233Z,1017.4
2023-06-06T10:23:22.229Z,1017.4
2023-06-06T10:28:22.214Z,1017.4
2023-06-06T10:33:22.223Z,1017.4
2023-06-06T10:38:22.306Z,1017.4
2023-06-06T10:43:22.254Z,1017.4
2023-06-06T10:48:22.231Z,1017.4
2023-06-06T10:53:22.262Z,1017.3
2023-06-06T10:58:22.233Z,1017.3
2023-06-06T11:03:23.327Z,1017.3
2023-06-06T11:08:22.282Z,1017.2
2023-06-06T11:13:22.238Z,1017.2
2023-06-06T11:18:22.239Z,1017.2
2023-06-06T11:23:22.300Z,1017.2
2023-06-06T11:28:22.709Z,1017.2
2023-06-06T11:33:22.251Z,1017.1
2023-06-06T11:38:22.312Z,1017.1
2023-06-06T11:43:22.251Z,1017.0
2023-06-06T11:48:22.268Z,1017.0
2023-06-06T11:53:22.256Z,1017.0
2023-06-06T11:58:22.273Z,1016.9
2023-06-06T12:03:22.259Z,1016.9
2023-06-06T12:08:22.287Z,1016.9
2023-06-06T12:13:22.255Z,1016.9
2023-06-06T12:18:22.373Z,1016.9
2023-06-06T12:23:22.249Z,1016.9
2023-06-06T12:28:22.264Z,1016.9
2023-06-06T12:33:22.264Z,1016.9
2023-06-06T12:38:22.265Z,1016.8
2023-06-06T12:43:22.315Z,1016.7
2023-06-06T12:48:22.271Z,1016.7
2023-06-06T12:53:22.503Z,1016.7
2023-06-06T12:58:22.270Z,1016.7
2023-06-06T13:03:24.605Z,1016.6
2023-06-06T13:08:22.272Z,1016.6
2023-06-06T13:13:22.280Z,1016.6
2023-06-06T13:18:22.269Z,1016.6
2023-06-06T13:23:22.279Z,1016.5
2023-06-06T13:28:22.293Z,1016.5
2023-06-06T13:33:22.410Z,1016.5
2023-06-06T13:38:22.368Z,1016.5
2023-06-06T13:43:22.336Z,1016.5
2023-06-06T13:48:22.269Z,1016.5
2023-06-06T13:53:22.279Z,1016.4
2023-06-06T13:58:22.280Z,1016.4
2023-06-06T14:03:22.271Z,1016.4
2023-06-06T14:08:23.702Z,1016.3
2023-06-06T14:13:22.277Z,1016.3
2023-06-06T14:18:22.294Z,1016.3
2023-06-06T14:23:22.286Z,1016.2
2023-06-06T14:28:22.286Z,1016.2
2023-06-06T14:33:22.304Z,1016.2
2023-06-06T14:38:22.313Z,1016.2
2023-06-06T14:43:22.336Z,1016.1
2023-06-06T14:48:22.344Z,1016.1
2023-06-06T14:53:22.313Z,1016.1
2023-06-06T14:58:22.336Z,1016.1
2023-06-06T15:03:22.327Z,1016.1
2023-06-06T15:08:22.322Z,1016.1
2023-06-06T15:13:22.330Z,1016.1
2023-06-06T15:18:22.332Z,1016.0
2023-06-06T15:23:22.333Z,1016.0
2023-06-06T15:28:22.332Z,1016.0
2023-06-06T15:33:22.400Z,1016.0
2023-06-06T15:38:22.347Z,1016.0
2023-06-06T15:43:22.488Z,1016.0
2023-06-06T15:48:22.352Z,1016.0
2023-06-06T15:53:22.369Z,1016.0
2023-06-06T15:58:22.370Z,1015.9
2023-06-06T16:03:22.388Z,1015.9
2023-06-06T16:08:22.461Z,1015.9
2023-06-06T16:13:22.384Z,1015.9
2023-06-06T16:18:22.436Z,1015.9
2023-06-06T16:23:22.395Z,1015.9
2023-06-06T16:28:22.402Z,1015.9
2023-06-06T16:33:22.407Z,1015.8
2023-06-06T16:38:22.425Z,1016.0
2023-06-06T16:43:22.411Z,1015.9
2023-06-06T16:48:22.419Z,1015.9
2023-06-06T16:53:22.412Z,1016.0
2023-06-06T16:58:22.429Z,1016.0
2023-06-06T17:03:22.421Z,1016.0
2023-06-06T17:08:22.421Z,1015.9
2023-06-06T17:13:22.425Z,1015.9
2023-06-06T17:18:22.432Z,1015.9
2023-06-06T17:23:22.431Z,1015.9
2023-06-06T17:28:22.441Z,1016.0
2023-06-06T17:33:22.535Z,1016.0
2023-06-06T17:38:22.469Z,1016.0
2023-06-06T17:43:22.464Z,1016.1
2023-06-06T17:48:22.497Z,1016.0
2023-06-06T17:53:22.465Z,1016.1
2023-06-06T17:58:22.477Z,1016.0
2023-06-06T18:03:22.478Z,1016.0
2023-06-06T18:08:22.489Z,1016.0
2023-06-06T18:13:22.495Z,1016.1
2023-06-06T18:18:22.493Z,1016.1
2023-06-06T18:23:22.498Z,1016.1
2023-06-06T18:28:22.551Z,1016.2
2023-06-06T18:33:22.502Z,1016.2
2023-06-06T18:38:22.662Z,1016.2
2023-06-06T18:43:22.509Z,1016.3
2023-06-06T18:48:22.524Z,1016.3
2023-06-06T18:53:22.512Z,1016.3
2023-06-06T18:58:22.525Z,1016.4
2023-06-06T19:03:22.531Z,1016.4
2023-06-06T19:08:22.535Z,1016.5
2023-06-06T19:13:22.552Z,1016.5
2023-06-06T19:18:22.563Z,1016.5
2023-06-06T19:23:22.552Z,1016.6
2023-06-06T19:28:22.563Z,1016.6
2023-06-06T19:33:22.590Z,1016.7
2023-06-06T19:38:22.581Z,1016.7
2023-06-06T19:43:22.622Z,1016.8
2023-06-06T19:48:22.590Z,1016.8
2023-06-06T19:53:22.582Z,1016.8
2023-06-06T19:58:22.601Z,1016.9
2023-06-06T20:03:22.598Z,1017.0
2023-06-06T20:08:22.594Z,1017.0
2023-06-06T20:13:22.612Z,1017.0
2023-06-06T20:18:22.607Z,1017.0
2023-06-06T20:23:22.604Z,1017.0
2023-06-06T20:28:22.614Z,1017.1
2023-06-06T20:33:22.609Z,1017.0
2023-06-06T20:38:22.626Z,1017.1
2023-06-06T20:43:22.613Z,1017.2
2023-06-06T20:48:22.623Z,1017.2
2023-06-06T20:53:22.619Z,1017.2
2023-06-06T20:58:22.631Z,1017.2
2023-06-06T21:03:22.628Z,1017.2
2023-06-06T21:08:22.628Z,1017.3
2023-06-06T21:13:22.639Z,1017.2
2023-06-06T21:18:22.649Z,1017.2
2023-06-06T21:23:22.645Z,1017.3
2023-06-06T21:28:22.681Z,1017.3
2023-06-06T21:33:22.664Z,1017.3
2023-06-06T21:38:22.673Z,1017.3
2023-06-06T21:43:22.672Z,1017.3
2023-06-06T21:48:22.677Z,1017.3
2023-06-06T21:53:22.682Z,1017.4
2023-06-06T21:58:22.687Z,1017.4
2023-06-06T22:03:22.691Z,1017.5
2023-06-06T22:08:22.692Z,1017.5
2023-06-06T22:13:22.690Z,1017.5
2023-06-06T22:18:22.705Z,1017.5
2023-06-06T22:23:22.709Z,1017.4
2023-06-06T22:28:22.700Z,1017.4
2023-06-06T22:33:22.704Z,1017.5
2023-06-06T22:38:22.737Z,1017.5
2023-06-06T22:43:22.719Z,1017.5
2023-06-06T22:48:22.724Z,1017.5
2023-06-06T22:53:22.785Z,1017.5
2023-06-06T22:58:22.730Z,1017.4
2023-06-06T23:03:22.735Z,1017.4
2023-06-06T23:08:22.745Z,1017.4
2023-06-06T23:13:22.783Z,1017.3
2023-06-06T23:18:22.753Z,1017.3
2023-06-06T23:23:22.760Z,1017.3
2023-06-06T23:28:22.761Z,1017.3
2023-06-06T23:33:22.764Z,1017.3
2023-06-06T23:38:22.777Z,1017.3
2023-06-06T23:43:22.781Z,1017.3
2023-06-06T23:48:22.785Z,1017.3
2023-06-06T23:53:22.777Z,1017.4
2023-06-06T23:58:22.784Z,1017.3
